Time;durP1;ratioP1;P1;durP2;ratioP2;P2;SDS_P1;SDS_P2;PMS_P1;PMS_P2;Temp;Humidity;BMP_temperature;BMP_pressure;BME280_temperature;BME280_humidity;BME280_pressure;Samples;Min_cycle;Max_cycle;Signal;HPM_P1;HPM_P2
2022/05/08 00:04:29;;;;;;;;;;;;;;;11.65;57.11328;102909.8;;;;-83
2022/05/08 00:09:31;;;;;;;;;;;;;;;11.56;57.0791;102911.3;;;;-84
2022/05/08 00:17:11;;;;;;;;;;;;;;;11.43;57.65234;102907.2;;;;-83
2022/05/08 00:22:13;;;;;;;;;;;;;;;11.36;57.35254;102908.3;;;;-82
2022/05/08 00:27:17;;;;;;;;;;;;;;;11.31;57.20215;102907.2;;;;-83
2022/05/08 00:32:13;;;;;;;;;;;;;;;11.21;57.25586;102909.8;;;;-82
2022/05/08 00:37:19;;;;;;;;;;;;;;;11.15;57.38281;102902.3;;;;-84
2022/05/08 00:43:21;;;;;;;9.4;1.9;;;;;;;;;;;;;-84
2022/05/08 00:47:17;;;;;;;;;;;;;;;11;57.40723;102903.3;;;;-83
2022/05/08 00:52:09;;;;;;;;;;;;;;;10.91;57.66406;102907.9;;;;-82
2022/05/08 00:57:09;;;;;;;;;;;;;;;10.87;57.44531;102904.7;;;;-81
2022/05/08 01:03:58;;;;;;;;;;;;;;;10.76;57.67676;102903.6;;;;-86
2022/05/08 01:08:54;;;;;;;;;;;;;;;10.73;57.46094;102906.9;;;;-85
2022/05/08 01:13:23;;;;;;;11;2.1;;;;;;;;;;;;;-86
2022/05/08 01:17:32;;;;;;;;;;;;;;;10.6;57.59961;102901.9;;;;-82
2022/05/08 01:22:38;;;;;;;;;;;;;;;10.57;57.8291;102899;;;;-83
2022/05/08 01:27:27;;;;;;;;;;;;;;;10.51;57.80957;102896.3;;;;-81
2022/05/08 01:32:25;;;;;;;;;;;;;;;10.44;57.93359;102893.9;;;;-82
2022/05/08 01:37:37;;;;;;;;;;;;;;;10.38;57.9043;102902.9;;;;-82
2022/05/08 01:42:30;;;;;;;;;;;;;;;10.34;58.04297;102900.1;;;;-85
2022/05/08 01:43:16;;;;;;;10.8;1.8;;;;;;;;;;;;;-84
2022/05/08 01:49:32;;;;;;;;;;;;;;;10.29;58.12598;102903.3;;;;-83
2022/05/08 01:54:30;;;;;;;;;;;;;;;10.22;58.47363;102902.2;;;;-83
2022/05/08 01:59:35;;;;;;;;;;;;;;;10.18;58.52344;102906;;;;-84
2022/05/08 02:04:33;;;;;;;;;;;;;;;10.15;58.55176;102910.4;;;;-80
2022/05/08 02:09:41;;;;;;;;;;;;;;;10.1;58.58984;102913.5;;;;-83
2022/05/08 02:13:19;;;;;;;9.3;2.1;;;;;;;;;;;;;-82
2022/05/08 02:14:30;;;;;;;;;;;;;;;10.06;58.78516;102910.8;;;;-81
2022/05/08 02:19:40;;;;;;;;;;;;;;;10.01;58.7793;102911.5;;;;-83
2022/05/08 02:24:43;;;;;;;;;;;;;;;10.01;58.69043;102908.1;;;;-83
2022/05/08 02:29:29;;;;;;;;;;;;;;;9.98;58.47363;102917;;;;-83
2022/05/08 02:34:30;;;;;;;;;;;;;;;9.93;58.53418;102914.8;;;;-80
2022/05/08 02:43:32;;;;;;;8.3;1.8;;;;;;;;;;;;;-82
2022/05/08 02:44:30;;;;;;;;;;;;;;;9.76;58.64453;102892.4;;;;-83
2022/05/08 02:52:21;;;;;;;;;;;;;;;9.78;58.8584;102909;;;;-81
2022/05/08 03:07:14;;;;;;;;;;;;;;;9.69;58.99023;102913.8;;;;-82
2022/05/08 03:12:22;;;;;;;;;;;;;;;9.66;58.9873;102924;;;;-81
2022/05/08 03:13:18;;;;;;;9.5;1.9;;;;;;;;;;;;;-83
2022/05/08 03:17:17;;;;;;;;;;;;;;;9.63;59.13867;102925.9;;;;-82
2022/05/08 03:22:12;;;;;;;;;;;;;;;9.62;58.9043;102927;;;;-80
2022/05/08 03:27:09;;;;;;;;;;;;;;;9.59;58.62109;102932.5;;;;-82
2022/05/08 03:32:10;;;;;;;;;;;;;;;9.53;58.66895;102929.8;;;;-80
2022/05/08 03:37:20;;;;;;;;;;;;;;;9.5;58.77637;102933;;;;-81
2022/05/08 03:42:21;;;;;;;;;;;;;;;9.48;58.78418;102936.2;;;;-83
2022/05/08 03:43:13;;;;;;;11.6;1.9;;;;;;;;;;;;;-82
2022/05/08 03:47:14;;;;;;;;;;;;;;;9.44;58.74512;102939.6;;;;-82
2022/05/08 03:52:12;;;;;;;;;;;;;;;9.4;58.99707;102943.7;;;;-81
2022/05/08 03:57:09;;;;;;;;;;;;;;;9.36;58.84668;102942.4;;;;-83
2022/05/08 04:02:13;;;;;;;;;;;;;;;9.32;58.95117;102937.9;;;;-83
2022/05/08 04:07:17;;;;;;;;;;;;;;;9.29;59.04688;102943.7;;;;-82
2022/05/08 04:12:23;;;;;;;;;;;;;;;9.28;59.16797;102941.6;;;;-83
2022/05/08 04:13:17;;;;;;;9.2;1.8;;;;;;;;;;;;;-83
2022/05/08 04:17:10;;;;;;;;;;;;;;;9.28;58.99023;102945.5;;;;-82
2022/05/08 04:27:10;;;;;;;;;;;;;;;9.24;58.9082;102942.3;;;;-82
2022/05/08 04:32:10;;;;;;;;;;;;;;;9.25;58.80957;102948.5;;;;-84
2022/05/08 04:37:12;;;;;;;;;;;;;;;9.24;58.91895;102951.3;;;;-81
2022/05/08 04:42:11;;;;;;;;;;;;;;;9.23;58.88477;102953.2;;;;-82
2022/05/08 04:43:15;;;;;;;9.8;1.9;;;;;;;;;;;;;-82
2022/05/08 04:47:18;;;;;;;;;;;;;;;9.24;58.96387;102960.4;;;;-82
2022/05/08 04:52:09;;;;;;;;;;;;;;;9.26;58.74414;102959.8;;;;-82
2022/05/08 04:57:25;;;;;;;;;;;;;;;9.27;58.79102;102962.2;;;;-81
2022/05/08 05:02:12;;;;;;;;;;;;;;;9.28;58.59082;102966.1;;;;-82
2022/05/08 05:07:09;;;;;;;;;;;;;;;9.3;58.68262;102969.2;;;;-80
2022/05/08 05:12:11;;;;;;;;;;;;;;;9.33;58.51953;102970.3;;;;-83
2022/05/08 05:13:38;;;;;;;7.2;1.6;;;;;;;;;;;;;-82
2022/05/08 05:17:14;;;;;;;;;;;;;;;9.35;58.45605;102972.4;;;;-83
2022/05/08 05:22:09;;;;;;;;;;;;;;;9.41;58.25293;102974.4;;;;-81
2022/05/08 05:27:11;;;;;;;;;;;;;;;9.44;58.44629;102976.7;;;;-84
2022/05/08 05:32:10;;;;;;;;;;;;;;;9.51;58.12207;102982.2;;;;-83
2022/05/08 05:37:09;;;;;;;;;;;;;;;9.72;58.14941;102991.3;;;;-86
2022/05/08 05:42:12;;;;;;;;;;;;;;;10.05;57.91699;102995.1;;;;-83
2022/05/08 05:43:17;;;;;;;10.5;1.8;;;;;;;;;;;;;-82
2022/05/08 05:52:14;;;;;;;;;;;;;;;10.98;56.08789;102999.9;;;;-83
2022/05/08 05:57:10;;;;;;;;;;;;;;;11.55;55.16699;102999.3;;;;-83
2022/05/08 06:02:23;;;;;;;;;;;;;;;12.08;54.00293;103005.6;;;;-83
2022/05/08 06:07:11;;;;;;;;;;;;;;;12.57;53.20117;103008;;;;-81
2022/05/08 06:12:16;;;;;;;;;;;;;;;13.04;52.30566;103010.6;;;;-83
2022/05/08 06:13:36;;;;;;;8.6;1.6;;;;;;;;;;;;;-83
2022/05/08 06:17:09;;;;;;;;;;;;;;;13.5;51.47168;103016.2;;;;-83
2022/05/08 06:22:16;;;;;;;;;;;;;;;13.91;50.66699;103017.7;;;;-81
2022/05/08 06:27:14;;;;;;;;;;;;;;;14.28;49.7168;103024.2;;;;-83
2022/05/08 06:32:15;;;;;;;;;;;;;;;14.61;49.19141;103029.8;;;;-82
2022/05/08 06:37:09;;;;;;;;;;;;;;;15.01;48.43457;103032.1;;;;-83
2022/05/08 06:42:19;;;;;;;;;;;;;;;15.33;47.97363;103034.7;;;;-84
2022/05/08 06:43:25;;;;;;;6.5;1.5;;;;;;;;;;;;;-83
2022/05/08 06:47:19;;;;;;;;;;;;;;;15.65;47.33008;103032.9;;;;-81
2022/05/08 06:52:13;;;;;;;;;;;;;;;15.91;46.92773;103037;;;;-82
2022/05/08 07:10:21;;;;;;;;;;;;;;;16.54;45.96387;103042.8;;;;-82
2022/05/08 07:13:22;;;;;;;6.1;1.5;;;;;;;;;;;;;-84
2022/05/08 07:15:20;;;;;;;;;;;;;;;16.7;45.70801;103049.7;;;;-82
2022/05/08 07:20:20;;;;;;;;;;;;;;;16.74;45.46191;103054.2;;;;-83
2022/05/08 07:25:23;;;;;;;;;;;;;;;16.54;45.39746;103050.4;;;;-82
2022/05/08 07:30:25;;;;;;;;;;;;;;;16.28;45.8457;103054.3;;;;-82
2022/05/08 07:40:32;;;;;;;;;;;;;;;16.56;45.88672;103052.5;;;;-81
2022/05/08 07:43:30;;;;;;;6.2;1.4;;;;;;;;;;;;;-84
2022/05/08 07:45:26;;;;;;;;;;;;;;;17.09;45.18066;103051.9;;;;-83
2022/05/08 07:50:32;;;;;;;;;;;;;;;17.56;44.26367;103057.9;;;;-83
2022/05/08 07:55:21;;;;;;;;;;;;;;;18.04;43.56055;103056.6;;;;-84
2022/05/08 08:00:23;;;;;;;;;;;;;;;18.57;42.76953;103058.2;;;;-83
2022/05/08 08:05:25;;;;;;;;;;;;;;;18.93;42.17676;103068;;;;-81
2022/05/08 08:20:35;;;;;;;;;;;;;;;19.34;41.22266;103067.7;;;;-84
2022/05/08 08:49:35;;;;;;;;;;;;;;;20.46;40.02148;103066.1;;;;-85
2022/05/08 08:54:27;;;;;;;;;;;;;;;20.71;39.56348;103064;;;;-83
2022/05/08 08:59:21;;;;;;;;;;;;;;;21.03;39.21191;103062.7;;;;-84
2022/05/08 09:04:36;;;;;;;;;;;;;;;21.39;38.76172;103067;;;;-82
2022/05/08 09:09:29;;;;;;;;;;;;;;;21.64;38.34668;103064;;;;-83
2022/05/08 09:13:28;;;;;;;3.9;1;;;;;;;;;;;;;-85
2022/05/08 09:14:32;;;;;;;;;;;;;;;21.93;38.0498;103066.2;;;;-82
2022/05/08 09:19:21;;;;;;;;;;;;;;;22.23;37.69531;103062.9;;;;-78
2022/05/08 09:24:36;;;;;;;;;;;;;;;22.43;36.89551;103072.8;;;;-83
2022/05/08 09:29:23;;;;;;;;;;;;;;;22.51;37.10938;103071.9;;;;-75
2022/05/08 09:34:16;;;;;;;;;;;;;;;22.7;36.67578;103067.5;;;;-77
2022/05/08 09:39:15;;;;;;;;;;;;;;;22.94;36.2334;103063.5;;;;-78
2022/05/08 09:43:36;;;;;;;4.3;1.3;;;;;;;;;;;;;-76
2022/05/08 09:44:16;;;;;;;;;;;;;;;23.19;36.12695;103063.7;;;;-78
2022/05/08 09:49:17;;;;;;;;;;;;;;;23.52;35.75;103064.7;;;;-78
2022/05/08 09:54:17;;;;;;;;;;;;;;;23.81;35.43848;103059.2;;;;-77
2022/05/08 09:59:16;;;;;;;;;;;;;;;24.08;35.40234;103056.1;;;;-77
2022/05/08 10:04:16;;;;;;;;;;;;;;;24.34;35.29492;103063.6;;;;-76
2022/05/08 10:13:58;;;;;;;6.3;1.2;;;;;;;;;;;;;-77
2022/05/08 10:14:25;;;;;;;;;;;;;;;24.84;34.90527;103054;;;;-79
2022/05/08 10:19:27;;;;;;;;;;;;;;;25.16;34.6748;103051.3;;;;-77
2022/05/08 10:24:26;;;;;;;;;;;;;;;25.42;33.81348;103056.1;;;;-77
2022/05/08 10:29:18;;;;;;;;;;;;;;;25.57;33.34961;103058.7;;;;-76
2022/05/08 10:34:16;;;;;;;;;;;;;;;25.68;33.11328;103052.3;;;;-77
2022/05/08 10:39:36;;;;;;;;;;;;;;;25.84;32.89258;103049.2;;;;-77
2022/05/08 10:43:37;;;;;;;4;1.3;;;;;;;;;;;;;-78
2022/05/08 10:44:26;;;;;;;;;;;;;;;25.98;32.96094;103045.8;;;;-75
2022/05/08 10:49:15;;;;;;;;;;;;;;;26.08;32.875;103054.1;;;;-77
2022/05/08 10:54:18;;;;;;;;;;;;;;;26.21;32.86133;103040.7;;;;-75
2022/05/08 10:59:15;;;;;;;;;;;;;;;26.44;32.69238;103045.4;;;;-76
2022/05/08 11:04:16;;;;;;;;;;;;;;;26.55;32.31641;103036.8;;;;-75
2022/05/08 11:09:16;;;;;;;;;;;;;;;26.73;32.17773;103048.8;;;;-77
2022/05/08 11:13:47;;;;;;;4.7;1.3;;;;;;;;;;;;;-77
2022/05/08 11:14:24;;;;;;;;;;;;;;;26.87;31.88477;103044.7;;;;-76
2022/05/08 11:19:15;;;;;;;;;;;;;;;26.93;31.08496;103045.2;;;;-77
2022/05/08 11:24:28;;;;;;;;;;;;;;;27.03;31.96582;103042;;;;-76
2022/05/08 11:29:18;;;;;;;;;;;;;;;27.08;31.7832;103037.3;;;;-78
2022/05/08 11:39:18;;;;;;;;;;;;;;;27.29;31.20313;103027.2;;;;-77
2022/05/08 11:43:45;;;;;;;3.8;1.4;;;;;;;;;;;;;-77
2022/05/08 11:44:28;;;;;;;;;;;;;;;27.47;31.13477;103022.3;;;;-77
2022/05/08 11:49:22;;;;;;;;;;;;;;;27.59;31.43457;103027.5;;;;-78
2022/05/08 11:54:27;;;;;;;;;;;;;;;27.66;31.50879;103017.6;;;;-77
2022/05/08 11:59:23;;;;;;;;;;;;;;;27.63;31.78711;103013;;;;-78
2022/05/08 12:04:28;;;;;;;;;;;;;;;27.65;31.33301;103017.4;;;;-76
2022/05/08 12:09:15;;;;;;;;;;;;;;;27.61;31.33008;103021.5;;;;-75
2022/05/08 12:13:59;;;;;;;5.2;1.4;;;;;;;;;;;;;-77
2022/05/08 12:14:15;;;;;;;;;;;;;;;27.64;31.95117;103007.3;;;;-75
2022/05/08 12:19:19;;;;;;;;;;;;;;;27.68;31.66211;103009.3;;;;-77
2022/05/08 12:24:21;;;;;;;;;;;;;;;27.75;31.56152;103004.4;;;;-76
2022/05/08 12:29:23;;;;;;;;;;;;;;;27.9;31.3623;103004.5;;;;-78
2022/05/08 12:34:15;;;;;;;;;;;;;;;28;30.41113;103000.2;;;;-77
2022/05/08 12:39:16;;;;;;;;;;;;;;;28.01;31.22949;103004.4;;;;-76
2022/05/08 12:43:52;;;;;;;3.9;1.2;;;;;;;;;;;;;-77
2022/05/08 12:44:16;;;;;;;;;;;;;;;28.09;30.59277;102997.8;;;;-77
2022/05/08 12:49:16;;;;;;;;;;;;;;;28.21;30.55469;103000.2;;;;-76
2022/05/08 12:54:15;;;;;;;;;;;;;;;28.27;30.41797;102992.7;;;;-77
2022/05/08 13:04:16;;;;;;;;;;;;;;;28.47;30.4541;102979.7;;;;-79
2022/05/08 13:09:16;;;;;;;;;;;;;;;28.56;30.4375;102971.3;;;;-76
2022/05/08 13:13:57;;;;;;;4.6;1.3;;;;;;;;;;;;;-77
2022/05/08 13:14:16;;;;;;;;;;;;;;;28.71;30.6709;102967.6;;;;-77
2022/05/08 13:19:15;;;;;;;;;;;;;;;28.8;30.38379;102962.5;;;;-76
2022/05/08 13:24:16;;;;;;;;;;;;;;;28.79;29.98535;102961.1;;;;-77
2022/05/08 13:29:15;;;;;;;;;;;;;;;28.79;29.84375;102955.7;;;;-77
2022/05/08 13:34:17;;;;;;;;;;;;;;;28.82;30.13867;102953.6;;;;-76
2022/05/08 13:39:15;;;;;;;;;;;;;;;28.89;30.43652;102947.2;;;;-77
2022/05/08 13:44:02;;;;;;;5.2;1.2;;;;;;;;;;;;;-77
2022/05/08 13:44:15;;;;;;;;;;;;;;;29.01;30.35059;102947.2;;;;-75
2022/05/08 13:49:15;;;;;;;;;;;;;;;29.07;29.52344;102935.9;;;;-77
2022/05/08 13:54:17;;;;;;;;;;;;;;;29.09;29.40723;102927.1;;;;-78
2022/05/08 13:59:15;;;;;;;;;;;;;;;29.07;29.14844;102928.6;;;;-77
2022/05/08 14:04:15;;;;;;;;;;;;;;;29.06;29.28809;102925.5;;;;-76
2022/05/08 14:09:16;;;;;;;;;;;;;;;29.02;29.14551;102919.7;;;;-77
2022/05/08 14:14:05;;;;;;;4.8;1.3;;;;;;;;;;;;;-77
2022/05/08 14:14:15;;;;;;;;;;;;;;;29.07;29.30078;102921.3;;;;-74
2022/05/08 14:19:15;;;;;;;;;;;;;;;29.06;28.94922;102910.9;;;;-76
2022/05/08 14:24:15;;;;;;;;;;;;;;;29;29.08496;102913.5;;;;-76
2022/05/08 14:29:16;;;;;;;;;;;;;;;28.93;29.1748;102903.8;;;;-78
2022/05/08 14:39:15;;;;;;;;;;;;;;;28.88;28.95996;102897.6;;;;-76
2022/05/08 14:44:09;;;;;;;4.5;1.2;;;;;;;;;;;;;-76
2022/05/08 14:44:19;;;;;;;;;;;;;;;28.82;28.88672;102889.4;;;;-76
2022/05/08 14:49:17;;;;;;;;;;;;;;;28.74;29.10352;102893.6;;;;-76
2022/05/08 14:54:15;;;;;;;;;;;;;;;28.66;29.25098;102888.1;;;;-76
2022/05/08 14:59:15;;;;;;;;;;;;;;;28.59;28.94238;102885.4;;;;-77
2022/05/08 15:04:17;;;;;;;;;;;;;;;28.48;28.98242;102879.6;;;;-77
2022/05/08 15:09:15;;;;;;;;;;;;;;;28.37;29.02148;102874.5;;;;-76
2022/05/08 15:14:13;;;;;;;5.6;1.3;;;;;;;;;;;;;-76
2022/05/08 15:14:24;;;;;;;;;;;;;;;28.19;28.72949;102874.1;;;;-75
2022/05/08 15:19:15;;;;;;;;;;;;;;;28.05;29.02441;102866.3;;;;-75
2022/05/08 15:24:16;;;;;;;;;;;;;;;27.89;29.2832;102869.4;;;;-76
2022/05/08 15:29:17;;;;;;;;;;;;;;;27.75;29.23828;102873.8;;;;-76
2022/05/08 15:34:16;;;;;;;;;;;;;;;27.64;29.16211;102860.5;;;;-76
2022/05/08 15:39:26;;;;;;;;;;;;;;;26.49;25.22949;102863.5;;;;-79
2022/05/08 15:44:16;;;;;;;;;;;;;;;24.05;27.69043;102859;;;;-82
2022/05/08 15:44:39;;;;;;;5.8;1.5;;;;;;;;;;;;;-82
2022/05/08 15:49:16;;;;;;;;;;;;;;;23.01;28.78125;102860.6;;;;-79
2022/05/08 15:54:16;;;;;;;;;;;;;;;22.53;29.29297;102859.5;;;;-79
2022/05/08 15:59:17;;;;;;;;;;;;;;;21.9;29.79297;102859.3;;;;-78
2022/05/08 16:04:21;;;;;;;;;;;;;;;21.83;30.2041;102858.7;;;;-79
2022/05/08 16:09:16;;;;;;;;;;;;;;;21.56;30.24316;102862.3;;;;-74
2022/05/08 16:24:15;;;;;;;;;;;;;;;20.47;32.24707;102867.5;;;;-78
2022/05/08 16:29:15;;;;;;;;;;;;;;;20.37;32.6416;102857.6;;;;-77
2022/05/08 16:34:15;;;;;;;;;;;;;;;20.15;33.2334;102869.5;;;;-76
2022/05/08 16:39:15;;;;;;;;;;;;;;;19.84;33.9209;102870.1;;;;-78
2022/05/08 16:44:20;;;;;;;;;;;;;;;19.57;34.71289;102866.8;;;;-78
2022/05/08 16:44:35;;;;;;;8.3;1.6;;;;;;;;;;;;;-78
2022/05/08 16:49:16;;;;;;;;;;;;;;;19.25;35.45508;102867.1;;;;-78
2022/05/08 16:54:15;;;;;;;;;;;;;;;19.1;36.00293;102857.4;;;;-79
2022/05/08 16:59:15;;;;;;;;;;;;;;;19.02;36.14551;102863.5;;;;-78
2022/05/08 17:04:15;;;;;;;;;;;;;;;19.99;34.56348;102860.1;;;;-78
2022/05/08 17:09:15;;;;;;;;;;;;;;;20.46;33.89941;102854.2;;;;-75
2022/05/08 17:14:15;;;;;;;;;;;;;;;20.61;33.6123;102854.6;;;;-77
2022/05/08 17:14:26;;;;;;;6.8;1.8;;;;;;;;;;;;;-75
2022/05/08 17:19:27;;;;;;;;;;;;;;;20.63;33.51074;102861.5;;;;-84
2022/05/08 17:24:27;;;;;;;;;;;;;;;20.56;33.55176;102861.8;;;;-83
2022/05/08 17:29:17;;;;;;;;;;;;;;;20.43;33.74805;102858.3;;;;-85
2022/05/08 17:34:18;;;;;;;;;;;;;;;20.33;33.93555;102859.4;;;;-84
2022/05/08 17:39:21;;;;;;;;;;;;;;;20.17;34.10645;102859.9;;;;-84
2022/05/08 17:44:18;;;;;;;;;;;;;;;19.94;34.3418;102854.1;;;;-83
2022/05/08 17:44:33;;;;;;;5.8;1.6;;;;;;;;;;;;;-83
2022/05/08 17:49:35;;;;;;;;;;;;;;;19.73;34.56543;102861.5;;;;-82
2022/05/08 17:54:32;;;;;;;;;;;;;;;19.52;34.99512;102850;;;;-81
2022/05/08 18:09:55;;;;;;;;;;;;;;;18.91;35.73535;102863.7;;;;-83
2022/05/08 18:14:47;;;;;;;5.9;1.4;;;;;;;;;;;;;-85
2022/05/08 18:19:59;;;;;;;;;;;;;;;18.45;36.13281;102856.3;;;;-83
2022/05/08 18:29:30;;;;;;;;;;;;;;;17.99;36.36816;102857.2;;;;-85
2022/05/08 18:34:32;;;;;;;;;;;;;;;17.71;36.96094;102860.2;;;;-85
2022/05/08 18:39:36;;;;;;;;;;;;;;;17.46;37.12207;102869.1;;;;-84
2022/05/08 18:44:40;;;;;;;;;;;;;;;17.19;37.36133;102873.2;;;;-85
2022/05/08 18:45:18;;;;;;;5.5;1.5;;;;;;;;;;;;;-85
2022/05/08 18:49:38;;;;;;;;;;;;;;;16.93;37.81641;102871.5;;;;-84
2022/05/08 18:54:33;;;;;;;;;;;;;;;16.65;38.39453;102869;;;;-83
2022/05/08 18:59:40;;;;;;;;;;;;;;;16.39;38.50781;102875.9;;;;-86
2022/05/08 19:04:35;;;;;;;;;;;;;;;16.1;39.23145;102881.2;;;;-83
2022/05/08 19:09:34;;;;;;;;;;;;;;;15.82;39.60352;102891.3;;;;-84
2022/05/08 19:14:53;;;;;;;;;;;;;;;;;;;;;
2022/05/08 19:15:32;;;;;;;5;1.2;;;;;;;;;;;;;-84
2022/05/08 19:19:46;;;;;;;;;;;;;;;15.33;40.55566;102895.5;;;;-84
2022/05/08 19:24:35;;;;;;;;;;;;;;;15.11;40.96582;102894.4;;;;-82
2022/05/08 19:39:31;;;;;;;;;;;;;;;14.46;42.06836;102901.3;;;;-83
2022/05/08 19:44:40;;;;;;;;;;;;;;;14.27;42.50098;102905.6;;;;-85
2022/05/08 19:44:51;;;;;;;5.5;1.3;;;;;;;;;;;;;-85
2022/05/08 19:49:43;;;;;;;;;;;;;;;14.09;42.70996;102913.5;;;;-84
2022/05/08 19:59:51;;;;;;;;;;;;;;;13.7;43.47168;102919.8;;;;-85
2022/05/08 20:04:28;;;;;;;;;;;;;;;13.55;43.8291;102927.2;;;;-85
2022/05/08 20:09:45;;;;;;;;;;;;;;;13.38;43.91211;102936;;;;-85
2022/05/08 20:14:48;;;;;;;;;;;;;;;13.26;44.40625;102927.7;;;;-82
2022/05/08 20:15:06;;;;;;;3.8;1.4;;;;;;;;;;;;;-82
2022/05/08 20:19:30;;;;;;;;;;;;;;;13.14;44.48535;102928;;;;-84
2022/05/08 20:24:37;;;;;;;;;;;;;;;13;44.61719;102926.6;;;;-84
2022/05/08 20:29:32;;;;;;;;;;;;;;;12.88;44.7627;102927.4;;;;-83
2022/05/08 20:34:28;;;;;;;;;;;;;;;12.76;44.90723;102924.4;;;;-85
2022/05/08 20:39:34;;;;;;;;;;;;;;;12.66;45.28906;102930.9;;;;-84
2022/05/08 20:44:34;;;;;;;;;;;;;;;12.58;45.30371;102923.7;;;;-82
2022/05/08 20:44:55;;;;;;;5.9;1.3;;;;;;;;;;;;;-82
2022/05/08 20:49:29;;;;;;;;;;;;;;;12.45;45.68359;102932.8;;;;-84
2022/05/08 20:54:30;;;;;;;;;;;;;;;12.36;45.84277;102935;;;;-85
2022/05/08 20:59:28;;;;;;;;;;;;;;;12.26;46.24805;102932.9;;;;-83
2022/05/08 21:04:28;;;;;;;;;;;;;;;12.17;46.46289;102938;;;;-84
2022/05/08 21:09:36;;;;;;;;;;;;;;;12.09;46.3877;102937.3;;;;-84
2022/05/08 21:14:29;;;;;;;;;;;;;;;12.05;46.67383;102939.6;;;;-83
2022/05/08 21:14:42;;;;;;;5.8;1.5;;;;;;;;;;;;;-82
2022/05/08 21:19:29;;;;;;;;;;;;;;;11.96;46.85449;102944.5;;;;-81
2022/05/08 21:24:29;;;;;;;;;;;;;;;11.86;46.82129;102940.3;;;;-82
2022/05/08 21:29:28;;;;;;;;;;;;;;;11.76;47.09082;102939;;;;-83
2022/05/08 21:34:30;;;;;;;;;;;;;;;11.69;47.15039;102940.8;;;;-83
2022/05/08 21:39:28;;;;;;;;;;;;;;;11.6;47.4209;102932.6;;;;-84
2022/05/08 21:44:28;;;;;;;;;;;;;;;11.55;47.5166;102929.7;;;;-84
2022/05/08 21:44:42;;;;;;;4.8;1.4;;;;;;;;;;;;;-84
2022/05/08 21:49:27;;;;;;;;;;;;;;;11.46;47.51758;102931.6;;;;-82
2022/05/08 21:54:30;;;;;;;;;;;;;;;11.37;47.68848;102939.6;;;;-83
2022/05/08 21:59:30;;;;;;;;;;;;;;;11.34;47.64941;102943.5;;;;-85
2022/05/08 22:13:52;;;;;;;;;;;;;;;11.16;48.07715;102942.8;;;;-82
2022/05/08 22:14:46;;;;;;;5.6;1.4;;;;;;;;;;;;;-81
2022/05/08 22:23:50;;;;;;;;;;;;;;;11.02;48.0957;102951.3;;;;-85
2022/05/08 22:28:54;;;;;;;;;;;;;;;10.96;48.24609;102956;;;;-83
2022/05/08 22:33:50;;;;;;;;;;;;;;;10.9;48.27344;102953.2;;;;-83
2022/05/08 22:38:54;;;;;;;;;;;;;;;10.85;48.2002;102953.2;;;;-82
2022/05/08 22:43:52;;;;;;;;;;;;;;;10.79;48.22559;102955.4;;;;-84
2022/05/08 22:44:47;;;;;;;4.6;1.3;;;;;;;;;;;;;-83
2022/05/08 22:48:56;;;;;;;;;;;;;;;10.74;48.20996;102952.3;;;;-81
2022/05/08 22:53:50;;;;;;;;;;;;;;;10.69;48.25977;102952.1;;;;-83
2022/05/08 22:58:50;;;;;;;;;;;;;;;10.61;48.37402;102941.5;;;;-83
2022/05/08 23:03:49;;;;;;;;;;;;;;;10.55;48.53516;102944.7;;;;-84
2022/05/08 23:09:00;;;;;;;;;;;;;;;10.47;48.52832;102942.7;;;;-83
2022/05/08 23:13:49;;;;;;;;;;;;;;;10.43;48.64453;102949.9;;;;-84
2022/05/08 23:18:54;;;;;;;;;;;;;;;10.38;48.56152;102954.2;;;;-83
2022/05/08 23:23:51;;;;;;;;;;;;;;;10.31;48.59766;102956.6;;;;-83
2022/05/08 23:28:50;;;;;;;;;;;;;;;10.27;48.7832;102950;;;;-84
2022/05/08 23:34:00;;;;;;;;;;;;;;;10.21;49.01074;102942.1;;;;-83
2022/05/08 23:39:07;;;;;;;;;;;;;;;10.17;49.55371;102941.8;;;;-84
2022/05/08 23:43:52;;;;;;;;;;;;;;;10.13;49.37109;102934;;;;-83
2022/05/08 23:44:48;;;;;;;3.9;1.1;;;;;;;;;;;;;-84
2022/05/08 23:48:50;;;;;;;;;;;;;;;10.09;49.62207;102934.3;;;;-83
2022/05/08 23:53:51;;;;;;;;;;;;;;;10.08;49.93359;102933.9;;;;-83
2022/05/08 23:58:56;;;;;;;;;;;;;;;10.09;49.81152;102936.3;;;;-84
